Time;durP1;ratioP1;P1;durP2;ratioP2;P2;SDS_P1;SDS_P2;PMS_P1;PMS_P2;Temp;Humidity;BMP_temperature;BMP_pressure;BME280_temperature;BME280_humidity;BME280_pressure;Samples;Min_cycle;Max_cycle;Signal;HPM_P1;HPM_P2
2022/09/12 00:01:40;;;;;;;12.70;10.10;;;;;;;13.73;87.53;99672.72;5061813;28;20045;-68
2022/09/12 00:04:07;;;;;;;12.13;8.85;;;;;;;13.84;87.16;99671.16;5069784;28;20135;-68
2022/09/12 00:06:35;;;;;;;10.20;8.82;;;;;;;13.86;86.98;99672.75;5069246;28;20048;-67
2022/09/12 00:09:06;;;;;;;12.68;10.18;;;;;;;13.86;87.32;99670.13;5069468;28;20079;-68
2022/09/12 00:11:36;;;;;;;12.27;9.48;;;;;;;13.90;87.43;99668.09;5069379;28;20048;-67
2022/09/12 00:14:03;;;;;;;12.82;9.70;;;;;;;13.90;86.54;99670.75;5069549;28;20064;-68
2022/09/12 00:16:32;;;;;;;14.05;10.73;;;;;;;13.85;86.74;99664.91;5068806;28;20085;-68
2022/09/12 00:18:59;;;;;;;14.10;10.00;;;;;;;13.83;86.85;99662.38;5069507;28;20488;-68
2022/09/12 00:21:25;;;;;;;17.05;10.45;;;;;;;13.84;87.26;99665.88;5069230;28;20052;-67
2022/09/12 00:23:52;;;;;;;13.05;10.68;;;;;;;13.81;86.97;99655.44;5069227;28;20052;-68
2022/09/12 00:26:21;;;;;;;15.55;12.93;;;;;;;13.82;86.96;99659.81;5068187;28;20531;-69
2022/09/12 00:28:48;;;;;;;12.27;10.13;;;;;;;13.79;87.16;99660.84;5069254;28;20101;-67
2022/09/12 00:31:17;;;;;;;13.38;11.13;;;;;;;13.76;87.37;99655.75;5069351;28;20075;-69
2022/09/12 00:33:44;;;;;;;14.27;12.63;;;;;;;13.75;87.38;99659.34;5068566;28;20051;-70
2022/09/12 00:36:14;;;;;;;14.48;11.52;;;;;;;13.78;87.24;99655.66;5068481;28;20135;-68
2022/09/12 00:38:41;;;;;;;12.55;9.25;;;;;;;13.79;87.13;99646.75;5069254;28;20045;-69
2022/09/12 00:41:14;;;;;;;12.23;10.32;;;;;;;13.79;87.07;99652.91;5069008;28;20053;-69
2022/09/12 00:43:44;;;;;;;13.48;11.10;;;;;;;13.79;86.85;99652.91;5054932;28;20045;-68
2022/09/12 00:46:22;;;;;;;14.65;11.13;;;;;;;13.78;87.16;99653.84;5048551;28;20053;-67
2022/09/12 00:48:55;;;;;;;15.80;11.85;;;;;;;13.79;87.26;99644.97;5048915;28;20522;-68
2022/09/12 00:51:23;;;;;;;19.77;11.77;;;;;;;13.79;87.07;99644.13;5049148;28;20408;-67
2022/09/12 00:53:53;;;;;;;13.35;10.90;;;;;;;13.78;86.44;99637.94;5049156;28;20445;-67
2022/09/12 00:56:21;;;;;;;16.58;12.20;;;;;;;13.77;86.77;99644.19;5050762;28;20053;-66
2022/09/12 00:58:54;;;;;;;15.38;12.60;;;;;;;13.76;86.82;99639.88;5069352;28;20099;-67
2022/09/12 01:01:21;;;;;;;12.85;10.75;;;;;;;13.76;86.96;99639.88;5068902;28;20076;-68
2022/09/12 01:03:47;;;;;;;15.45;12.98;;;;;;;13.79;87.28;99634.34;5068858;28;20049;-67
2022/09/12 01:06:18;;;;;;;18.50;11.90;;;;;;;13.81;86.52;99629.81;5068214;28;20045;-67
2022/09/12 01:08:47;;;;;;;13.60;11.48;;;;;;;13.80;86.50;99641.34;5069039;28;20052;-66
2022/09/12 01:11:15;;;;;;;14.85;12.43;;;;;;;13.81;86.81;99635.13;5068741;28;20056;-68
2022/09/12 01:13:44;;;;;;;15.93;13.00;;;;;;;13.78;87.19;99630.00;5068785;28;20045;-68
2022/09/12 01:16:12;;;;;;;17.10;12.60;;;;;;;13.79;86.69;99625.56;5068012;28;20052;-67
2022/09/12 01:18:49;;;;;;;15.75;12.55;;;;;;;13.78;86.60;99627.34;5068804;28;20053;-67
2022/09/12 01:21:22;;;;;;;15.63;13.18;;;;;;;13.77;87.01;99627.47;5068791;28;20060;-67
2022/09/12 01:24:33;;;;;;;20.75;14.55;;;;;;;13.75;87.20;99620.44;5068742;28;20135;-67
2022/09/12 01:27:43;;;;;;;17.55;12.07;;;;;;;13.73;86.76;99621.50;5048385;28;20535;-68
2022/09/12 01:30:30;;;;;;;17.02;13.70;;;;;;;13.67;87.54;99613.97;5043327;28;20056;-67
2022/09/12 01:33:12;;;;;;;19.30;13.15;;;;;;;13.66;87.74;99615.78;5048670;28;20079;-68
2022/09/12 01:35:49;;;;;;;19.50;14.68;;;;;;;13.69;87.56;99609.41;5063527;28;20044;-67
2022/09/12 01:38:25;;;;;;;21.05;14.00;;;;;;;13.70;87.40;99613.75;5048701;28;20076;-66
2022/09/12 01:41:01;;;;;;;17.63;14.45;;;;;;;13.73;87.51;99619.72;5068381;28;20048;-66
2022/09/12 01:43:34;;;;;;;16.10;11.52;;;;;;;13.74;87.56;99615.28;5065309;28;20048;-67
2022/09/12 01:46:09;;;;;;;18.58;13.98;;;;;;;13.73;87.60;99610.91;5071563;28;20045;-67
2022/09/12 01:48:39;;;;;;;17.13;14.32;;;;;;;13.71;87.32;99611.03;5070247;28;20048;-66
2022/09/12 01:51:10;;;;;;;21.52;16.77;;;;;;;13.70;87.32;99604.00;5055139;28;20052;-67
2022/09/12 01:53:42;;;;;;;16.70;12.65;;;;;;;13.71;87.32;99605.72;5065899;28;20508;-67
2022/09/12 01:56:13;;;;;;;19.58;13.13;;;;;;;13.71;87.25;99602.22;5074318;28;20459;-67
2022/09/12 01:58:45;;;;;;;19.23;15.90;;;;;;;13.70;86.86;99597.84;5076078;28;20049;-66
2022/09/12 02:01:17;;;;;;;20.77;17.33;;;;;;;13.69;88.00;99594.38;5076286;28;20056;-68
2022/09/12 02:03:49;;;;;;;20.58;18.00;;;;;;;13.72;87.68;99595.97;5072218;28;20048;-67
2022/09/12 02:06:20;;;;;;;21.83;15.13;;;;;;;13.74;87.48;99588.78;5074557;28;20051;-68
2022/09/12 02:08:50;;;;;;;18.42;14.85;;;;;;;13.80;87.73;99580.41;5053246;28;20052;-67
2022/09/12 02:11:18;;;;;;;26.85;15.82;;;;;;;13.80;86.88;99583.06;5052757;28;20076;-67
2022/09/12 02:13:49;;;;;;;20.73;14.57;;;;;;;13.79;87.59;99586.66;5052951;28;20063;-68
2022/09/12 02:16:21;;;;;;;22.15;15.18;;;;;;;13.79;87.66;99584.03;5052106;28;20153;-68
2022/09/12 02:18:52;;;;;;;18.95;15.55;;;;;;;13.78;87.46;99578.81;5052535;28;20041;-69
2022/09/12 02:21:20;;;;;;;22.90;14.27;;;;;;;13.82;87.10;99578.50;5059340;28;20040;-67
2022/09/12 02:23:50;;;;;;;23.63;18.20;;;;;;;13.85;87.06;99574.81;5071740;28;20048;-67
2022/09/12 02:26:21;;;;;;;21.95;16.38;;;;;;;13.86;86.89;99579.16;5070896;28;20063;-67
2022/09/12 02:28:48;;;;;;;20.95;15.23;;;;;;;13.88;87.05;99578.13;5071260;28;20048;-67
2022/09/12 02:31:24;;;;;;;22.80;18.58;;;;;;;13.91;87.00;99575.25;5067605;28;20045;-68
2022/09/12 02:34:02;;;;;;;20.58;14.82;;;;;;;13.92;87.27;99576.09;5071419;28;20132;-67
2022/09/12 02:36:38;;;;;;;20.38;14.88;;;;;;;13.90;86.80;99570.03;5054342;28;20045;-67
2022/09/12 02:39:04;;;;;;;24.50;19.35;;;;;;;13.87;87.08;99568.44;5051698;28;20049;-66
2022/09/12 02:41:31;;;;;;;22.42;17.13;;;;;;;13.89;86.77;99571.84;5052175;28;20053;-68
2022/09/12 02:43:58;;;;;;;19.45;15.20;;;;;;;13.90;86.68;99572.69;5053336;28;20056;-67
2022/09/12 02:46:33;;;;;;;22.75;17.90;;;;;;;13.94;86.57;99566.25;5051751;28;20511;-67
2022/09/12 02:49:00;;;;;;;24.38;18.95;;;;;;;13.92;86.58;99568.16;5056050;28;20492;-66
2022/09/12 02:51:27;;;;;;;19.33;15.90;;;;;;;13.91;87.08;99564.66;5071671;28;20049;-68
2022/09/12 02:53:54;;;;;;;20.55;16.75;;;;;;;13.91;86.83;99567.31;5071566;28;20048;-66
2022/09/12 02:56:26;;;;;;;22.67;17.45;;;;;;;13.94;86.61;99568.91;5070061;28;20624;-68
2022/09/12 02:58:55;;;;;;;22.92;16.95;;;;;;;13.95;86.10;99562.63;5071613;28;20052;-68
2022/09/12 03:01:43;;;;;;;20.02;15.43;;;;;;;13.96;87.08;99565.19;5070949;28;20048;-66
2022/09/12 03:04:42;;;;;;;20.83;14.45;;;;;;;14.00;86.34;99567.63;5070781;28;20079;-66
2022/09/12 03:07:16;;;;;;;25.73;20.52;;;;;;;14.00;86.08;99564.97;5071706;28;20051;-68
2022/09/12 03:09:49;;;;;;;19.05;15.60;;;;;;;13.98;86.85;99558.94;5071015;28;20044;-67
2022/09/12 03:12:35;;;;;;;19.70;16.35;;;;;;;14.01;86.64;99559.59;5074441;28;20134;-69
2022/09/12 03:15:12;;;;;;;22.77;17.80;;;;;;;14.01;86.68;99549.00;5080059;28;20048;-68
2022/09/12 03:17:55;;;;;;;20.63;17.13;;;;;;;14.06;86.25;99557.47;5076366;28;20049;-68
2022/09/12 03:20:35;;;;;;;20.13;14.30;;;;;;;14.11;86.52;99558.00;5074125;28;20060;-69
2022/09/12 03:23:05;;;;;;;24.00;17.85;;;;;;;14.11;85.52;99557.16;5072999;28;20051;-69
2022/09/12 03:25:35;;;;;;;17.88;14.30;;;;;;;14.16;85.60;99555.06;5072585;28;20048;-69
2022/09/12 03:28:08;;;;;;;17.85;14.85;;;;;;;14.17;85.45;99560.25;5068460;28;20060;-69
2022/09/12 03:30:39;;;;;;;22.80;17.08;;;;;;;14.14;85.15;99563.09;5070625;28;20049;-69
2022/09/12 03:33:11;;;;;;;25.60;16.60;;;;;;;14.09;85.85;99554.63;5050508;28;20067;-68
2022/09/12 03:35:38;;;;;;;20.60;16.05;;;;;;;14.07;86.30;99550.38;5050140;28;20749;-67
2022/09/12 03:38:06;;;;;;;18.65;14.73;;;;;;;14.08;85.86;99558.22;5049676;28;20049;-67
2022/09/12 03:40:33;;;;;;;17.83;14.38;;;;;;;14.10;86.20;99550.16;5049791;28;20463;-68
2022/09/12 03:43:00;;;;;;;21.67;15.93;;;;;;;14.10;85.32;99561.63;5050145;28;20049;-69
2022/09/12 03:45:26;;;;;;;19.65;15.23;;;;;;;14.05;86.01;99553.13;5049628;28;21271;-67
2022/09/12 03:47:53;;;;;;;21.20;15.68;;;;;;;14.03;86.51;99557.69;5051419;28;20075;-67
2022/09/12 03:50:21;;;;;;;25.48;18.42;;;;;;;14.01;86.47;99562.25;5049443;28;20060;-67
2022/09/12 03:52:47;;;;;;;24.00;16.23;;;;;;;13.98;86.38;99556.28;5049817;28;20041;-70
2022/09/12 03:55:14;;;;;;;20.00;16.15;;;;;;;13.95;86.72;99552.91;5052215;28;20068;-69
2022/09/12 03:57:41;;;;;;;20.65;17.13;;;;;;;13.92;86.96;99558.41;5049055;28;20167;-69
2022/09/12 04:00:09;;;;;;;21.25;15.18;;;;;;;13.93;86.76;99549.50;5060227;28;20056;-68
2022/09/12 04:02:35;;;;;;;17.70;14.75;;;;;;;13.91;87.05;99554.06;5069749;28;20455;-70
2022/09/12 04:05:02;;;;;;;20.25;17.00;;;;;;;13.88;86.94;99546.31;5069836;28;20404;-69
2022/09/12 04:07:30;;;;;;;19.73;15.50;;;;;;;13.85;86.74;99543.00;5068041;28;20048;-69
2022/09/12 04:09:56;;;;;;;25.65;16.80;;;;;;;13.80;86.81;99540.66;5069479;28;20044;-69
2022/09/12 04:12:23;;;;;;;25.30;18.05;;;;;;;13.76;87.14;99541.84;5069659;28;20055;-69
2022/09/12 04:14:49;;;;;;;16.70;13.35;;;;;;;13.74;87.42;99535.78;5069278;28;20048;-68
2022/09/12 04:17:16;;;;;;;22.98;16.13;;;;;;;13.72;87.00;99527.94;5068578;28;20063;-69
2022/09/12 04:19:42;;;;;;;22.70;14.68;;;;;;;13.73;87.27;99536.72;5069192;28;20063;-69
2022/09/12 04:22:09;;;;;;;18.35;15.35;;;;;;;13.68;87.70;99536.16;5068528;28;20714;-69
2022/09/12 04:24:37;;;;;;;20.10;15.48;;;;;;;13.71;87.79;99536.00;5067259;28;20488;-68
2022/09/12 04:27:04;;;;;;;22.92;17.15;;;;;;;13.68;87.15;99536.16;5068963;28;20044;-67
2022/09/12 04:29:30;;;;;;;23.70;17.05;;;;;;;13.69;87.25;99530.78;5069206;28;20496;-67
2022/09/12 04:31:57;;;;;;;24.33;17.30;;;;;;;13.68;87.34;99538.81;5069270;28;20056;-68
2022/09/12 04:34:24;;;;;;;20.92;17.30;;;;;;;13.64;87.76;99530.25;5069099;28;20056;-68
2022/09/12 04:36:50;;;;;;;19.33;16.05;;;;;;;13.64;87.87;99529.41;5068625;28;20044;-68
2022/09/12 04:39:17;;;;;;;21.17;16.55;;;;;;;13.58;87.91;99527.97;5069146;28;20055;-68
2022/09/12 04:41:45;;;;;;;23.13;16.98;;;;;;;13.55;87.60;99530.00;5068873;28;20051;-68
2022/09/12 04:44:13;;;;;;;22.15;17.15;;;;;;;13.47;88.04;99526.06;5069169;28;20048;-67
2022/09/12 04:46:43;;;;;;;25.70;18.02;;;;;;;13.44;88.65;99522.75;5068189;28;20424;-69
2022/09/12 04:49:10;;;;;;;23.77;18.67;;;;;;;13.41;88.34;99522.94;5060696;28;20098;-67
2022/09/12 04:51:38;;;;;;;23.02;17.05;;;;;;;13.38;88.22;99517.84;5049175;28;20063;-68
2022/09/12 04:54:07;;;;;;;22.33;17.38;;;;;;;13.34;89.26;99519.00;5048928;28;20041;-66
2022/09/12 04:56:37;;;;;;;25.92;19.45;;;;;;;13.30;88.77;99518.34;5060253;28;20781;-67
2022/09/12 04:59:05;;;;;;;25.25;18.88;;;;;;;13.30;89.67;99507.75;5068775;28;20048;-66
2022/09/12 05:01:32;;;;;;;23.35;17.13;;;;;;;13.29;89.83;99506.91;5068994;28;20447;-67
2022/09/12 05:03:59;;;;;;;20.73;17.35;;;;;;;13.31;89.14;99504.16;5068863;28;20063;-67
2022/09/12 05:06:28;;;;;;;19.70;16.88;;;;;;;13.30;89.14;99497.19;5068444;28;20053;-67
2022/09/12 05:08:57;;;;;;;24.10;17.50;;;;;;;13.28;89.25;99499.06;5069161;28;20053;-67
2022/09/12 05:11:28;;;;;;;26.38;17.70;;;;;;;13.29;89.53;99492.81;5068706;28;20098;-67
2022/09/12 05:13:55;;;;;;;18.70;14.98;;;;;;;13.32;89.84;99503.22;5068799;28;20810;-68
2022/09/12 05:16:24;;;;;;;25.00;18.33;;;;;;;13.34;88.98;99511.06;5068060;28;20423;-68
2022/09/12 05:18:51;;;;;;;20.90;16.92;;;;;;;13.34;88.72;99509.28;5069342;28;20135;-67
2022/09/12 05:21:19;;;;;;;24.13;16.58;;;;;;;13.35;88.88;99516.25;5072524;28;20049;-68
2022/09/12 05:23:47;;;;;;;18.95;15.75;;;;;;;13.38;89.03;99520.50;5068401;28;20057;-68
2022/09/12 05:26:16;;;;;;;22.42;17.00;;;;;;;13.34;88.51;99513.69;5051659;28;20099;-67
2022/09/12 05:28:43;;;;;;;23.20;17.20;;;;;;;13.35;88.84;99516.25;5052480;28;20052;-67
2022/09/12 05:31:12;;;;;;;19.98;16.05;;;;;;;13.35;89.05;99516.25;5052623;28;20053;-67
2022/09/12 05:33:41;;;;;;;19.27;15.20;;;;;;;13.37;89.44;99519.66;5052280;28;20053;-67
2022/09/12 05:36:11;;;;;;;23.73;18.20;;;;;;;13.35;88.99;99521.56;5051499;28;20053;-68
2022/09/12 05:38:38;;;;;;;20.80;14.63;;;;;;;13.37;88.95;99524.97;5060120;28;20041;-69
2022/09/12 05:41:06;;;;;;;18.20;15.63;;;;;;;13.40;89.49;99527.41;5071976;28;20045;-66
2022/09/12 05:43:33;;;;;;;20.55;15.32;;;;;;;13.40;89.14;99526.56;5072345;28;20052;-67
2022/09/12 05:46:03;;;;;;;18.90;15.45;;;;;;;13.43;88.96;99526.34;5071386;28;20049;-67
2022/09/12 05:48:31;;;;;;;25.00;15.57;;;;;;;13.45;88.68;99530.59;5065567;28;20135;-69
2022/09/12 05:51:05;;;;;;;14.52;11.15;;;;;;;13.50;89.02;99520.53;5052077;28;20514;-67
2022/09/12 05:53:32;;;;;;;16.90;12.65;;;;;;;13.59;88.41;99531.50;5069726;28;20580;-68
2022/09/12 05:56:06;;;;;;;17.17;13.90;;;;;;;13.58;88.07;99533.28;5071048;28;20049;-68
2022/09/12 05:58:33;;;;;;;17.77;15.32;;;;;;;13.66;88.11;99546.00;5071767;28;20140;-64
2022/09/12 06:01:06;;;;;;;16.17;13.20;;;;;;;13.80;87.78;99545.13;5071814;28;20048;-63
2022/09/12 06:03:33;;;;;;;18.63;13.50;;;;;;;13.98;86.88;99543.03;5071593;28;20061;-63
2022/09/12 06:06:04;;;;;;;14.23;12.40;;;;;;;14.08;86.98;99539.69;5070681;28;20067;-63
2022/09/12 06:08:31;;;;;;;17.10;14.32;;;;;;;14.15;86.01;99538.31;5071646;28;20053;-60
2022/09/12 06:11:01;;;;;;;19.83;15.32;;;;;;;14.22;86.02;99537.88;5071455;28;20049;-65
2022/09/12 06:13:28;;;;;;;15.25;12.18;;;;;;;14.24;85.77;99535.97;5071229;28;20527;-54
2022/09/12 06:15:54;;;;;;;21.25;13.10;;;;;;;14.29;85.74;99541.81;5067008;28;20060;-54
2022/09/12 06:18:21;;;;;;;17.25;10.73;;;;;;;14.36;85.47;99545.75;5070711;28;20067;-53
2022/09/12 06:20:48;;;;;;;18.25;13.23;;;;;;;14.38;85.88;99549.97;5070706;28;20048;-59
2022/09/12 06:23:15;;;;;;;20.35;9.50;;;;;;;14.48;85.98;99549.34;5071427;28;20131;-67
2022/09/12 06:25:49;;;;;;;12.07;10.73;;;;;;;14.60;85.42;99548.53;5071099;28;20088;-69
2022/09/12 06:28:16;;;;;;;18.63;11.73;;;;;;;14.66;84.99;99548.09;5070889;28;20044;-64
2022/09/12 06:30:42;;;;;;;15.73;12.15;;;;;;;14.70;84.83;99546.94;5070213;28;20072;-65
2022/09/12 06:33:09;;;;;;;16.13;11.80;;;;;;;14.73;85.05;99544.06;5070550;28;20082;-66
2022/09/12 06:35:37;;;;;;;15.75;10.70;;;;;;;14.76;84.65;99538.53;5070105;28;20055;-65
2022/09/12 06:38:04;;;;;;;13.75;11.32;;;;;;;14.84;84.97;99537.13;5068765;28;20389;-65
2022/09/12 06:40:32;;;;;;;13.02;10.82;;;;;;;14.89;85.00;99535.88;5069245;28;20052;-67
2022/09/12 06:42:58;;;;;;;12.93;9.88;;;;;;;14.95;84.72;99523.97;5069710;28;20052;-66
2022/09/12 06:45:26;;;;;;;16.77;10.25;;;;;;;15.01;85.04;99531.47;5069969;28;20052;-66
2022/09/12 06:47:52;;;;;;;10.50;8.80;;;;;;;15.05;85.32;99526.81;5069776;28;20044;-66
2022/09/12 06:50:20;;;;;;;10.20;9.10;;;;;;;15.10;85.56;99532.63;5052227;28;20053;-65
2022/09/12 06:52:49;;;;;;;9.75;8.68;;;;;;;15.23;84.91;99536.97;5050972;28;20120;-66
2022/09/12 06:55:15;;;;;;;12.85;9.93;;;;;;;15.34;84.68;99537.97;5051276;28;20045;-66
2022/09/12 06:57:43;;;;;;;11.27;10.02;;;;;;;15.46;84.55;99542.41;5049900;28;20045;-65
2022/09/12 07:00:11;;;;;;;10.65;9.55;;;;;;;15.61;84.39;99543.91;5050823;28;20049;-67
2022/09/12 07:02:37;;;;;;;11.73;8.13;;;;;;;15.75;83.29;99542.06;5058509;28;20052;-66
2022/09/12 07:05:05;;;;;;;12.10;10.02;;;;;;;15.87;82.93;99551.78;5070866;28;20059;-65
2022/09/12 07:07:33;;;;;;;11.07;7.82;;;;;;;16.01;82.44;99545.44;5070183;28;20060;-65
2022/09/12 07:09:59;;;;;;;10.45;8.25;;;;;;;16.13;82.18;99549.81;5070667;28;20087;-66
2022/09/12 07:12:28;;;;;;;13.60;8.70;;;;;;;16.31;80.73;99545.75;5070073;28;20043;-66
2022/09/12 07:14:55;;;;;;;8.80;7.38;;;;;;;16.49;80.19;99543.50;5070793;28;20048;-66
2022/09/12 07:17:22;;;;;;;13.52;7.30;;;;;;;16.65;79.64;99543.13;5056619;28;20068;-66
2022/09/12 07:19:48;;;;;;;10.75;8.25;;;;;;;16.81;78.45;99550.81;5069337;28;20052;-64
2022/09/12 07:22:15;;;;;;;11.75;8.10;;;;;;;16.95;76.70;99555.84;5070035;28;20056;-66
2022/09/12 07:24:42;;;;;;;7.85;6.15;;;;;;;17.14;75.73;99549.06;5070415;28;20496;-67
2022/09/12 07:27:08;;;;;;;7.47;5.82;;;;;;;17.34;75.48;99547.47;5069417;28;20048;-67
2022/09/12 07:29:35;;;;;;;6.25;5.65;;;;;;;17.53;74.42;99549.47;5070163;28;20048;-67
2022/09/12 07:32:04;;;;;;;10.35;7.47;;;;;;;17.70;73.91;99545.44;5051748;28;20048;-66
2022/09/12 07:34:31;;;;;;;8.10;6.45;;;;;;;17.87;73.71;99541.38;5050368;28;20550;-65
2022/09/12 07:36:57;;;;;;;6.90;5.70;;;;;;;18.00;72.36;99542.91;5049487;28;20053;-65
2022/09/12 07:39:24;;;;;;;5.95;5.07;;;;;;;18.14;69.28;99541.75;5050240;28;20068;-66
2022/09/12 07:41:50;;;;;;;7.70;5.95;;;;;;;18.30;68.05;99543.09;5051937;28;20112;-66
2022/09/12 07:44:32;;;;;;;7.38;5.40;;;;;;;18.48;67.14;99543.34;5067672;28;20056;-66
2022/09/12 07:46:59;;;;;;;6.93;5.18;;;;;;;18.64;65.97;99541.03;5070356;28;20106;-67
2022/09/12 07:49:27;;;;;;;7.85;5.13;;;;;;;18.75;65.12;99537.44;5059391;28;20052;-66
2022/09/12 07:51:53;;;;;;;7.97;4.82;;;;;;;18.86;65.78;99538.22;5035681;28;20053;-66
2022/09/12 07:54:20;;;;;;;6.50;4.70;;;;;;;18.94;64.99;99532.19;5070068;28;20040;-66
2022/09/12 07:56:47;;;;;;;5.53;4.45;;;;;;;18.98;64.22;99524.78;5071207;28;20059;-66
2022/09/12 07:59:13;;;;;;;6.30;4.88;;;;;;;19.00;63.82;99537.03;5070744;28;20131;-65
2022/09/12 08:01:40;;;;;;;5.78;4.80;;;;;;;19.03;63.63;99527.88;5072181;28;20048;-65
2022/09/12 08:04:07;;;;;;;7.25;5.35;;;;;;;19.04;64.29;99530.41;5073402;28;20117;-65
2022/09/12 08:06:35;;;;;;;6.57;5.22;;;;;;;19.03;64.62;99528.72;5070824;28;20440;-66
2022/09/12 08:09:03;;;;;;;6.40;5.32;;;;;;;19.15;64.83;99529.47;5069946;28;20416;-66
2022/09/12 08:11:30;;;;;;;5.97;4.53;;;;;;;19.31;65.68;99526.25;5069547;28;20082;-67
2022/09/12 08:13:58;;;;;;;7.80;6.22;;;;;;;19.39;66.54;99526.41;5069763;28;20052;-66
2022/09/12 08:16:27;;;;;;;7.78;6.47;;;;;;;19.50;65.25;99533.47;5067551;28;20146;-65
2022/09/12 08:18:54;;;;;;;6.82;5.75;;;;;;;19.60;66.44;99534.31;5069292;28;20045;-64
2022/09/12 08:21:23;;;;;;;8.43;5.45;;;;;;;19.77;65.18;99531.97;5069184;28;20056;-65
2022/09/12 08:23:54;;;;;;;5.97;4.45;;;;;;;19.95;64.41;99527.59;5069609;28;20059;-65
2022/09/12 08:26:21;;;;;;;6.55;5.60;;;;;;;20.14;63.89;99532.09;5068871;28;20050;-66
2022/09/12 08:28:48;;;;;;;5.55;4.05;;;;;;;20.29;64.33;99525.28;5069392;28;20060;-65
2022/09/12 08:31:17;;;;;;;7.72;4.18;;;;;;;20.43;62.07;99528.50;5069493;28;20143;-66
2022/09/12 08:33:44;;;;;;;6.03;5.28;;;;;;;20.47;61.78;99528.06;5069145;28;20515;-64
2022/09/12 08:36:13;;;;;;;4.32;3.75;;;;;;;20.58;59.88;99525.25;5068479;28;20511;-65
2022/09/12 08:38:41;;;;;;;5.25;4.00;;;;;;;20.64;60.24;99523.81;5068975;28;20151;-64
2022/09/12 08:41:20;;;;;;;5.05;3.78;;;;;;;20.83;59.91;99525.56;5068941;28;20521;-65
2022/09/12 08:44:01;;;;;;;4.05;3.38;;;;;;;21.01;58.55;99526.47;5071902;28;20044;-65
2022/09/12 08:46:34;;;;;;;9.02;4.18;;;;;;;21.17;58.86;99528.50;5072277;28;20553;-66
2022/09/12 08:49:03;;;;;;;6.47;3.55;;;;;;;21.29;58.01;99526.47;5066231;28;20079;-66
2022/09/12 08:51:33;;;;;;;4.82;3.22;;;;;;;21.48;57.73;99520.16;5053303;28;20053;-65
2022/09/12 08:54:02;;;;;;;4.13;3.60;;;;;;;21.79;56.69;99514.41;5053529;28;20106;-66
2022/09/12 08:56:36;;;;;;;3.90;3.30;;;;;;;21.92;56.11;99520.22;5052682;28;20509;-66
2022/09/12 08:59:03;;;;;;;5.60;3.47;;;;;;;22.03;56.38;99511.09;5053273;28;20045;-65
2022/09/12 09:01:32;;;;;;;4.35;2.97;;;;;;;22.54;54.43;99513.97;5053060;28;20049;-66
2022/09/12 09:04:28;;;;;;;4.07;2.85;;;;;;;23.18;51.75;99511.78;5053392;28;20064;-65
2022/09/12 09:07:24;;;;;;;4.43;2.83;;;;;;;23.55;51.17;99509.53;5052354;28;20512;-66
2022/09/12 09:10:00;;;;;;;;;;;;;;;23.67;50.93;99507.31;5064517;28;20110;-63
2022/09/12 09:12:36;;;;;;;4.10;3.45;;;;;;;23.73;49.76;99501.31;5073275;28;19927;-65
2022/09/12 09:15:20;;;;;;;7.30;3.13;;;;;;;23.98;49.59;99499.47;5073330;28;20523;-63
2022/09/12 09:17:51;;;;;;;4.05;2.75;;;;;;;24.94;47.56;99496.94;5072577;28;20098;-65
2022/09/12 09:20:27;;;;;;;3.83;3.20;;;;;;;25.52;46.41;99501.00;5073135;28;20048;-66
2022/09/12 09:22:58;;;;;;;5.55;3.58;;;;;;;26.16;44.39;99497.97;5074003;28;20052;-65
2022/09/12 09:25:30;;;;;;;3.35;2.53;;;;;;;26.99;42.39;99501.50;5073970;28;20044;-65
2022/09/12 09:28:02;;;;;;;3.75;2.47;;;;;;;27.70;40.43;99493.56;5074215;28;20515;-65
2022/09/12 09:30:30;;;;;;;3.17;2.50;;;;;;;28.23;38.86;99494.06;5074580;28;20044;-66
2022/09/12 09:33:00;;;;;;;3.30;2.38;;;;;;;28.86;38.15;99485.06;5073922;28;20052;-64
2022/09/12 09:35:38;;;;;;;3.97;2.88;;;;;;;29.40;36.68;99480.69;5073640;28;20142;-66
2022/09/12 09:38:21;;;;;;;3.10;2.53;;;;;;;29.71;35.67;99483.72;5073274;28;20048;-66
2022/09/12 09:41:00;;;;;;;4.90;2.58;;;;;;;29.90;35.52;99479.31;5073761;28;20496;-65
2022/09/12 09:43:28;;;;;;;3.95;2.22;;;;;;;28.73;37.42;99482.31;5073534;28;20059;-66
2022/09/12 09:45:57;;;;;;;7.30;3.05;;;;;;;29.32;36.30;99482.56;5069515;28;20041;-66
2022/09/12 09:48:28;;;;;;;8.27;3.70;;;;;;;29.66;35.74;99482.66;5073476;28;20079;-66
2022/09/12 09:50:58;;;;;;;5.55;2.67;;;;;;;28.50;36.76;99477.97;5051807;28;20049;-67
2022/09/12 09:53:37;;;;;;;4.57;2.53;;;;;;;28.50;37.11;99471.72;5049553;28;20104;-67
2022/09/12 09:56:10;;;;;;;4.90;2.33;;;;;;;28.37;38.46;99472.44;5049823;28;20053;-68
2022/09/12 09:58:39;;;;;;;3.92;2.53;;;;;;;27.66;38.76;99470.59;5056363;28;20041;-66
2022/09/12 10:01:12;;;;;;;14.15;3.78;;;;;;;27.13;40.04;99470.03;5071736;28;20048;-66
2022/09/12 10:03:39;;;;;;;4.05;2.75;;;;;;;28.17;37.96;99466.91;5072709;28;20053;-66
2022/09/12 10:06:20;;;;;;;7.72;3.17;;;;;;;29.09;36.17;99457.63;5073555;28;20055;-67
2022/09/12 10:08:47;;;;;;;3.38;2.45;;;;;;;29.63;34.90;99459.41;5066526;28;20041;-66
2022/09/12 10:11:19;;;;;;;3.13;2.50;;;;;;;30.15;33.70;99460.50;5073813;28;20063;-68
2022/09/12 10:13:55;;;;;;;4.93;2.38;;;;;;;30.59;33.48;99452.69;5073973;28;20056;-67
2022/09/12 10:16:24;;;;;;;3.05;2.40;;;;;;;30.61;32.82;99447.88;5073604;28;20048;-67
2022/09/12 10:18:52;;;;;;;6.03;2.63;;;;;;;30.64;32.29;99446.59;5073952;28;20051;-67
2022/09/12 10:21:30;;;;;;;3.22;2.25;;;;;;;30.86;31.72;99445.28;5074001;28;20052;-67
2022/09/12 10:24:19;;;;;;;4.18;1.85;;;;;;;31.15;30.10;99437.63;5073783;28;20416;-65
2022/09/12 10:26:51;;;;;;;4.60;2.67;;;;;;;31.18;29.35;99438.00;5073268;28;20507;-67
2022/09/12 10:29:25;;;;;;;2.92;1.75;;;;;;;31.16;29.46;99442.00;5073816;28;20052;-66
2022/09/12 10:31:54;;;;;;;;;;;;;;;31.24;28.85;99431.69;5074041;28;20446;-67
2022/09/12 10:34:29;;;;;;;3.80;2.13;;;;;;;31.61;29.01;99426.44;5073448;28;20378;-67
2022/09/12 10:37:01;;;;;;;4.63;2.03;;;;;;;31.26;28.75;99426.06;5073267;28;20080;-65
2022/09/12 10:39:29;;;;;;;3.00;2.00;;;;;;;30.81;30.07;99428.75;5073735;28;20041;-66
2022/09/12 10:41:56;;;;;;;2.22;1.65;;;;;;;30.27;30.48;99417.19;5073275;28;20052;-67
2022/09/12 10:44:29;;;;;;;3.72;1.90;;;;;;;29.67;31.90;99419.13;5073505;28;20053;-66
2022/09/12 10:46:57;;;;;;;1.63;1.35;;;;;;;29.00;32.57;99418.94;5072587;28;20381;-66
2022/09/12 10:49:30;;;;;;;2.88;1.45;;;;;;;28.42;32.19;99415.75;5073329;28;20396;-66
2022/09/12 10:51:59;;;;;;;2.17;1.77;;;;;;;28.29;33.42;99411.09;5073420;28;20053;-66
2022/09/12 10:54:27;;;;;;;2.38;1.50;;;;;;;27.99;33.84;99410.50;5073548;28;20102;-66
2022/09/12 10:57:17;;;;;;;4.00;1.90;;;;;;;27.73;34.84;99405.66;5072598;28;20048;-65
2022/09/12 11:00:01;;;;;;;4.80;2.10;;;;;;;27.44;35.18;99410.19;5072923;28;20063;-65
2022/09/12 11:02:29;;;;;;;2.65;1.90;;;;;;;27.06;35.73;99407.72;5073693;28;20140;-65
2022/09/12 11:05:06;;;;;;;4.50;2.45;;;;;;;26.95;36.95;99400.06;5067403;28;20051;-67
2022/09/12 11:07:42;;;;;;;2.00;1.52;;;;;;;26.75;36.51;99400.72;5072523;28;20044;-65
2022/09/12 11:10:22;;;;;;;2.83;1.80;;;;;;;26.39;36.74;99392.53;5072901;28;20098;-67
2022/09/12 11:12:57;;;;;;;3.28;2.33;;;;;;;26.24;37.83;99397.94;5073073;28;20052;-68
2022/09/12 11:15:43;;;;;;;4.05;2.35;;;;;;;26.02;37.68;99396.16;5072816;28;20590;-68
2022/09/12 11:18:22;;;;;;;2.80;2.03;;;;;;;25.99;37.10;99391.09;5072050;28;20052;-66
2022/09/12 11:21:08;;;;;;;2.97;2.22;;;;;;;25.99;36.82;99378.47;5072857;28;20048;-67
2022/09/12 11:24:10;;;;;;;3.05;2.22;;;;;;;25.69;37.53;99383.75;5072796;28;20048;-67
2022/09/12 11:26:53;;;;;;;13.02;2.63;;;;;;;25.68;38.15;99382.09;5020151;28;20048;-67
2022/09/12 11:29:29;;;;;;;2.30;1.92;;;;;;;25.79;37.30;99378.09;5072449;28;20049;-66
2022/09/12 11:32:19;;;;;;;3.97;1.70;;;;;;;25.85;37.92;99376.53;5072561;28;20044;-63
2022/09/12 11:34:58;;;;;;;4.05;1.80;;;;;;;25.61;37.51;99364.94;5072353;28;20431;-66
2022/09/12 11:37:42;;;;;;;1.75;1.42;;;;;;;25.68;37.04;99367.75;5072225;28;20060;-68
2022/09/12 11:40:26;;;;;;;2.60;1.85;;;;;;;25.59;37.29;99368.84;5061835;28;20404;-69
2022/09/12 11:42:59;;;;;;;2.40;1.80;;;;;;;25.57;36.38;99368.19;5052763;28;20049;-67